ilmateenistus.ee keskkonnaagentuur.ee
EETN Таллинн
FTEO31 EETN 271700
TAF EETN 271700Z 2718/2818 11012KT CAVOK PROB40 TEMPO 2722/2801
    SCT025CB BECMG 2801/2802 SCT015 BKN025CB TEMPO 2802/2807 3000 TSRA
    BKN007 BKN020CB TEMPO 2807/2815 4000 SHRA PROB40 TEMPO 2808/2815
    VRB22KT TSRA=

SPECI EETN 271732Z 15008KT 100V190 CAVOK 27/15 Q1012=
Таллинн
EEKA Кярдла
FCEO32 EETN 271200 AAB
TAF AMD EEKA 271614Z 2713/2719 CNL=

METAR EEKA 271720Z NIL=
Кярдла
EEKE Курессааре
FCEO32 EETN 271400 CCA
TAF COR EEKE 271408Z 2715/2721 12012KT 9999 SCT045CB PROB40 TEMPO
    2715/2718 12013G23KT 6000 SHRA BECMG 2717/2719 11015G25KT TEMPO
    2718/2721 4000 TSRA SCT013 BKN020CB=

SPECI EEKE 271733Z AUTO 10010KT 8000NDV +RA FEW016 SCT033 OVC038 20/19 Q1010=
Курессааре
EEPU Пярну
METAR EEPU 271720Z NIL=
Пярну
EETU Тарту
METAR EETU 271720Z AUTO 03005KT 9999 -DZ FEW066/// SCT100/// 22/18 Q1012=
Тарту
EEEI Эмари
METAR EEEI 271650Z 17013G23KT 130V210 CAVOK 27/17 Q1012 NOSIG=
Эмари